Погода Воротиловона неделю

Тверская область, Россия

24 - 30 мая
  • 24мая
    Сегодня
    +8°
    +24°
    Ясно и безоблачно
    ВремяПогодаТемператураВлажностьДавлениеВетер, м/сВероятность осадков
    00:00Ясно и безоблачно+10°C56 %757 мм2.4 м/с2 %
    03:00Ясно и безоблачно+7°C63 %757 мм2.3 м/с2 %
    06:00Ясно и безоблачно+10°C63 %758 мм2.8 м/с2 %
    09:00Ясно и безоблачно+19°C44 %759 мм2.7 м/с2 %
    12:00Ясно и безоблачно+22°C32 %758 мм1.9 м/с2 %
    15:00Ясно и безоблачно+23°C31 %757 мм1.8 м/с2 %
    18:00Практически безоблачно+23°C32 %757 мм2.5 м/с2 %
    21:00Ясно и безоблачно+17°C47 %757 мм2.8 м/с2 %
  • 25мая
    Суббота
    +11°
    +25°
    Ясно и безоблачно
    ВремяПогодаТемператураВлажностьДавлениеВетер, м/сВероятность осадков
    00:00Ясно и безоблачно+12°C54 %756 мм2.8 м/с2 %
    03:00Ясно и безоблачно+9°C63 %757 мм2.9 м/с2 %
    06:00Ясно и безоблачно+10°C63 %757 мм2.7 м/с2 %
    09:00Ясно и безоблачно+19°C38 %756 мм3.4 м/с2 %
    12:00Практически безоблачно+22°C31 %755 мм3.9 м/с2 %
    15:00Ясно и безоблачно+23°C27 %754 мм4.1 м/с2 %
    18:00Ясно и безоблачно+24°C32 %753 мм4.0 м/с2 %
    21:00Ясно и безоблачно+18°C47 %752 мм2.6 м/с2 %
  • 26мая
    Воскресенье
    +7°
    +22°
    Облачно с прояснениями
    ВремяПогодаТемператураВлажностьДавлениеВетер, м/сВероятность осадков
    00:00Ясно и безоблачно+13°C59 %752 мм2.7 м/с2 %
    03:00Ясно и безоблачно+11°C66 %751 мм2.7 м/с2 %
    06:00Практически безоблачно+13°C71 %752 мм2.7 м/с10 %
    09:00Облачно с прояснениями+20°C62 %752 мм3.4 м/с28 %
    12:00Пасмурно, ливень+20°C61 %753 мм3.6 м/с58 %
    15:00Облачно с прояснениями+22°C47 %753 мм3.5 м/с45 %
    18:00Облачно с прояснениями+21°C42 %754 мм3.7 м/с17 %
    21:00Практически безоблачно+16°C51 %754 мм3.9 м/с2 %
  • 27мая
    Понедельник
    +6°
    +22°
    Небольшая облачность
    ВремяПогодаТемператураВлажностьДавлениеВетер, м/сВероятность осадков
    00:00Ясно и безоблачно+10°C51 %755 мм3.5 м/с2 %
    03:00Ясно и безоблачно+7°C56 %756 мм3.2 м/с2 %
    06:00Ясно и безоблачно+9°C58 %757 мм2.8 м/с2 %
    09:00Ясно и безоблачно+17°C39 %758 мм3.6 м/с2 %
    12:00Практически безоблачно+20°C34 %757 мм2.5 м/с2 %
    15:00Небольшая облачность+21°C31 %757 мм2.0 м/с2 %
    18:00Практически безоблачно+21°C31 %756 мм2.0 м/с2 %
    21:00Ясно и безоблачно+16°C46 %756 мм2.0 м/с2 %
  • 28мая
    Вторник
    +10°
    +25°
    Ясно и безоблачно
    ВремяПогодаТемператураВлажностьДавлениеВетер, м/сВероятность осадков
    00:00Ясно и безоблачно+11°C53 %755 мм2.4 м/с2 %
    03:00Ясно и безоблачно+8°C70 %755 мм2.1 м/с2 %
    06:00Ясно и безоблачно+11°C68 %755 мм2.1 м/с2 %
    09:00Ясно и безоблачно+20°C45 %755 мм2.0 м/с2 %
    12:00Ясно и безоблачно+24°C36 %755 мм2.2 м/с2 %
    15:00Ясно и безоблачно+25°C34 %754 мм2.2 м/с2 %
    18:00Ясно и безоблачно+25°C37 %753 мм1.8 м/с2 %
    21:00Ясно и безоблачно+20°C50 %752 мм2.9 м/с2 %
Мы используем cookies
Соглашаюсь